Time;durP1;ratioP1;P1;durP2;ratioP2;P2;SDS_P1;SDS_P2;PMS_P1;PMS_P2;Temp;Humidity;BMP_temperature;BMP_pressure;BME280_temperature;BME280_humidity;BME280_pressure;Samples;Min_cycle;Max_cycle;Signal;HPM_P1;HPM_P2
2022/01/08 00:01:14;;;;;;;12.32;6.43;;;;;;;2.51;100.00;94782.81;10360183;28;20042;-76
2022/01/08 00:06:14;;;;;;;8.77;5.25;;;;;;;2.50;100.00;94783.03;10360723;28;20061;-75
2022/01/08 00:11:19;;;;;;;9.85;5.88;;;;;;;2.50;100.00;94770.56;10344590;28;20041;-74
2022/01/08 00:16:20;;;;;;;8.40;5.57;;;;;;;2.60;100.00;94774.56;10363148;28;20117;-78
2022/01/08 00:21:20;;;;;;;9.73;4.70;;;;;;;2.56;100.00;94780.28;10357484;28;20044;-73
2022/01/08 00:26:21;;;;;;;8.65;5.00;;;;;;;2.64;100.00;94768.56;10361903;28;20511;-72
2022/01/08 00:31:21;;;;;;;7.75;4.20;;;;;;;2.45;100.00;94775.72;10360850;28;20022;-73
2022/01/08 00:36:22;;;;;;;6.25;3.78;;;;;;;2.48;100.00;94764.66;10344434;28;20034;-72
2022/01/08 00:41:22;;;;;;;7.88;4.70;;;;;;;2.49;100.00;94755.69;10341716;28;20522;-73
2022/01/08 00:46:23;;;;;;;6.32;4.43;;;;;;;2.54;100.00;94749.69;10373590;22;20057;-71
2022/01/08 00:51:23;;;;;;;6.13;3.88;;;;;;;2.56;100.00;94745.00;10359443;28;20030;-72
2022/01/08 00:56:24;;;;;;;6.80;4.40;;;;;;;2.71;100.00;94757.88;10363069;28;20036;-73
2022/01/08 01:01:24;;;;;;;7.55;3.85;;;;;;;2.72;100.00;94755.00;10362481;28;20026;-73
2022/01/08 01:06:25;;;;;;;4.25;3.40;;;;;;;2.74;100.00;94746.81;10363185;28;20476;-73
2022/01/08 01:11:25;;;;;;;5.78;2.95;;;;;;;2.57;100.00;94743.97;10361989;28;20022;-72
2022/01/08 01:16:25;;;;;;;5.07;3.35;;;;;;;2.62;100.00;94730.03;10381168;28;20109;-72
2022/01/08 01:21:26;;;;;;;6.93;4.07;;;;;;;2.64;100.00;94730.63;10360436;28;20060;-77
2022/01/08 01:26:29;;;;;;;5.35;3.28;;;;;;;2.61;100.00;94734.53;10358877;28;20482;-78
2022/01/08 01:42:25;;;;;;;6.15;3.00;;;;;;;2.43;100.00;94711.50;10379924;28;20021;-73
2022/01/08 01:47:35;;;;;;;5.63;3.70;;;;;;;2.39;100.00;94720.91;10346750;28;20074;-73
2022/01/08 01:52:36;;;;;;;3.97;2.95;;;;;;;2.33;100.00;94711.19;10342114;28;20048;-79
2022/01/08 01:57:37;;;;;;;5.60;3.72;;;;;;;2.29;100.00;94707.34;10362347;28;20029;-73
2022/01/08 02:02:38;;;;;;;5.68;2.50;;;;;;;2.32;100.00;94691.81;10338614;28;20017;-73
2022/01/08 02:07:39;;;;;;;5.78;3.08;;;;;;;2.26;100.00;94699.84;10342590;28;20026;-72
2022/01/08 02:12:39;;;;;;;5.25;3.60;;;;;;;2.24;100.00;94693.97;10377775;28;20439;-72
2022/01/08 02:17:42;;;;;;;7.47;3.72;;;;;;;2.29;100.00;94699.41;10359352;28;20032;-75
2022/01/08 02:22:43;;;;;;;5.45;3.28;;;;;;;2.28;100.00;94684.53;10381970;28;20025;-77
2022/01/08 02:27:43;;;;;;;5.75;3.22;;;;;;;2.26;100.00;94665.38;10373155;28;20472;-72
2022/01/08 02:32:45;;;;;;;5.75;3.90;;;;;;;2.29;100.00;94656.97;10386052;28;20017;-76
2022/01/08 02:37:45;;;;;;;7.07;3.10;;;;;;;2.23;100.00;94650.72;10368292;28;20021;-77
2022/01/08 02:43:04;;;;;;;4.78;3.17;;;;;;;2.30;100.00;94645.34;10367767;28;20022;-76
2022/01/08 02:48:04;;;;;;;10.23;3.47;;;;;;;2.29;100.00;94641.88;10366378;28;20459;-72
2022/01/08 02:53:05;;;;;;;6.05;3.55;;;;;;;2.33;100.00;94621.03;10367703;28;20029;-77
2022/01/08 02:58:05;;;;;;;4.25;3.03;;;;;;;2.38;100.00;94619.31;10367524;28;20026;-72
2022/01/08 03:03:07;;;;;;;6.65;4.35;;;;;;;2.42;100.00;94618.88;10368683;28;20544;-78
2022/01/08 03:08:08;;;;;;;7.80;3.55;;;;;;;2.43;100.00;94628.44;10370990;28;20029;-76
2022/01/08 03:13:08;;;;;;;6.55;4.00;;;;;;;2.54;100.00;94619.72;10366567;28;20021;-72
2022/01/08 03:18:09;;;;;;;5.10;3.75;;;;;;;2.50;100.00;94614.06;10366853;28;20028;-72
2022/01/08 03:23:14;;;;;;;5.85;3.65;;;;;;;2.54;100.00;94620.53;10362207;28;20032;-73
2022/01/08 03:28:14;;;;;;;7.80;3.85;;;;;;;2.51;100.00;94621.00;10351713;28;20021;-72
2022/01/08 03:33:15;;;;;;;4.78;2.90;;;;;;;2.68;100.00;94620.34;10363307;28;20022;-75
2022/01/08 03:38:15;;;;;;;3.88;2.38;;;;;;;2.66;100.00;94617.09;10367614;28;20017;-74
2022/01/08 03:43:16;;;;;;;4.68;2.22;;;;;;;2.53;100.00;94624.22;10362242;28;20018;-74
2022/01/08 03:53:27;;;;;;;7.85;3.00;;;;;;;2.32;100.00;94614.13;10366140;28;20044;-76
2022/01/08 03:58:28;;;;;;;4.55;2.90;;;;;;;2.33;100.00;94605.94;10364021;28;20025;-73
2022/01/08 04:03:28;;;;;;;3.55;2.00;;;;;;;2.31;100.00;94593.94;10388076;28;20025;-78
2022/01/08 04:08:29;;;;;;;6.47;3.20;;;;;;;2.28;100.00;94589.88;10378968;28;20033;-73
2022/01/08 04:13:33;;;;;;;4.68;2.42;;;;;;;2.36;100.00;94602.03;10344782;28;20029;-74
2022/01/08 04:18:34;;;;;;;4.47;2.65;;;;;;;2.37;100.00;94585.88;10344153;28;20488;-73
2022/01/08 04:23:35;;;;;;;4.80;2.13;;;;;;;2.42;100.00;94585.19;10345201;28;20022;-71
2022/01/08 04:28:35;;;;;;;6.03;2.90;;;;;;;2.50;100.00;94587.53;10328171;28;20026;-76
2022/01/08 04:33:36;;;;;;;3.95;2.90;;;;;;;2.66;100.00;94587.91;10344991;28;20399;-74
2022/01/08 04:38:37;;;;;;;4.88;3.47;;;;;;;2.68;100.00;94596.44;10343977;28;20087;-73
2022/01/08 04:43:42;;;;;;;4.95;2.63;;;;;;;2.59;100.00;94588.00;10335169;28;20381;-73
2022/01/08 04:48:42;;;;;;;3.40;2.50;;;;;;;2.58;100.00;94590.91;10321620;28;20050;-72
2022/01/08 04:53:43;;;;;;;17.10;2.92;;;;;;;2.56;100.00;94586.63;10321351;28;20027;-77
2022/01/08 04:58:45;;;;;;;4.18;2.40;;;;;;;2.55;100.00;94587.69;10324704;28;20046;-76
2022/01/08 05:03:45;;;;;;;4.47;3.20;;;;;;;2.65;100.00;94581.00;10320377;28;20489;-76
2022/01/08 05:08:46;;;;;;;4.88;2.83;;;;;;;2.59;100.00;94584.56;10322726;28;20049;-72
2022/01/08 05:13:46;;;;;;;11.02;3.75;;;;;;;2.62;100.00;94584.91;10331024;28;20033;-72
2022/01/08 05:18:49;;;;;;;6.25;3.00;;;;;;;2.64;100.00;94587.34;10343287;28;20042;-72
2022/01/08 05:23:50;;;;;;;4.00;2.17;;;;;;;2.69;100.00;94592.78;10328562;28;20070;-73
2022/01/08 05:28:51;;;;;;;3.83;2.13;;;;;;;2.67;100.00;94582.38;10302841;28;20164;-76
2022/01/08 05:33:52;;;;;;;4.05;2.35;;;;;;;2.74;100.00;94584.94;10326071;28;20526;-78
2022/01/08 05:38:52;;;;;;;2.95;1.95;;;;;;;2.79;100.00;94585.09;10342192;28;20034;-73
2022/01/08 05:43:53;;;;;;;2.13;1.85;;;;;;;2.81;100.00;94572.38;10325617;28;20500;-76
2022/01/08 05:48:53;;;;;;;3.08;2.25;;;;;;;2.80;100.00;94567.31;10342210;28;20050;-73
2022/01/08 05:53:53;;;;;;;4.22;1.98;;;;;;;2.89;100.00;94568.59;10342140;28;20048;-70
2022/01/08 05:58:54;;;;;;;2.90;2.00;;;;;;;2.79;100.00;94561.19;10346768;28;20037;-72
2022/01/08 06:03:54;;;;;;;4.20;2.47;;;;;;;2.87;100.00;94570.66;10349723;28;20387;-72
2022/01/08 06:08:55;;;;;;;6.43;3.20;;;;;;;2.94;100.00;94567.91;10367296;28;20022;-73
2022/01/08 06:13:55;;;;;;;3.03;2.05;;;;;;;3.03;100.00;94569.19;10328242;28;20023;-71
2022/01/08 06:18:56;;;;;;;4.28;2.08;;;;;;;3.05;100.00;94567.91;10308910;28;20081;-74
2022/01/08 06:23:57;;;;;;;2.53;1.40;;;;;;;3.04;100.00;94568.13;10334629;28;20033;-75
2022/01/08 06:28:57;;;;;;;2.85;1.70;;;;;;;2.92;100.00;94562.81;10349522;28;20029;-77
2022/01/08 06:33:58;;;;;;;2.92;1.63;;;;;;;2.84;100.00;94558.66;10349709;28;20496;-77
2022/01/08 06:38:58;;;;;;;2.92;1.98;;;;;;;2.96;100.00;94557.84;10324039;28;20072;-74
2022/01/08 06:43:58;;;;;;;2.28;1.50;;;;;;;2.82;100.00;94568.69;10309528;28;20045;-75
2022/01/08 06:48:59;;;;;;;2.17;1.50;;;;;;;2.94;100.00;94549.31;10302875;28;20399;-74
2022/01/08 06:54:00;;;;;;;4.05;1.83;;;;;;;3.01;100.00;94563.28;10386821;28;20631;-74
2022/01/08 06:59:00;;;;;;;2.47;1.95;;;;;;;3.05;100.00;94557.28;10363042;28;20141;-74
2022/01/08 07:04:02;;;;;;;2.25;1.98;;;;;;;3.14;100.00;94562.25;10364516;28;20105;-74
2022/01/08 07:09:02;;;;;;;2.25;1.45;;;;;;;3.20;100.00;94564.00;10370750;28;20021;-81
2022/01/08 07:14:03;;;;;;;4.18;1.80;;;;;;;3.20;100.00;94556.03;10387037;28;20562;-75
2022/01/08 07:19:03;;;;;;;2.47;1.73;;;;;;;3.21;100.00;94550.47;10403975;28;20061;-79
2022/01/08 07:24:04;;;;;;;4.60;2.30;;;;;;;3.16;100.00;94550.34;10387117;28;20026;-79
2022/01/08 07:29:04;;;;;;;3.72;2.33;;;;;;;3.24;100.00;94549.22;10325697;28;20452;-81
2022/01/08 07:34:05;;;;;;;3.30;2.10;;;;;;;3.29;100.00;94545.84;10317578;28;20088;-79
2022/01/08 07:39:05;;;;;;;3.90;1.95;;;;;;;3.32;100.00;94548.03;10305237;28;20476;-78
2022/01/08 07:44:06;;;;;;;2.47;1.10;;;;;;;3.38;100.00;94549.78;10346116;28;20056;-80
2022/01/08 07:49:09;;;;;;;3.00;2.20;;;;;;;3.37;100.00;94550.81;10345714;28;20054;-74
2022/01/08 07:54:09;;;;;;;2.97;1.85;;;;;;;3.38;100.00;94549.78;10345215;28;20046;-78
2022/01/08 07:59:10;;;;;;;7.35;1.60;;;;;;;3.44;100.00;94540.06;10343318;28;20048;-76
2022/01/08 08:04:10;;;;;;;2.70;1.63;;;;;;;3.47;100.00;94537.75;10343215;28;20498;-74
2022/01/08 08:09:10;;;;;;;11.68;2.42;;;;;;;3.58;100.00;94550.19;10327538;28;20033;-73
2022/01/08 08:14:11;;;;;;;2.80;1.80;;;;;;;3.65;100.00;94549.28;10361280;28;20041;-74
2022/01/08 08:19:12;;;;;;;3.60;1.70;;;;;;;3.67;100.00;94544.53;10338184;28;20106;-73
2022/01/08 08:24:14;;;;;;;3.60;1.80;;;;;;;3.72;100.00;94544.63;10343986;28;20420;-72
2022/01/08 08:29:15;;;;;;;2.10;1.30;;;;;;;3.79;100.00;94532.03;10360211;28;20515;-72
2022/01/08 08:34:15;;;;;;;3.55;2.25;;;;;;;3.72;100.00;94523.38;10343715;28;20033;-72
2022/01/08 08:39:16;;;;;;;7.53;2.47;;;;;;;3.76;100.00;94519.22;10342660;28;20191;-77
2022/01/08 08:44:16;;;;;;;5.40;3.03;;;;;;;3.79;100.00;94524.03;10323259;23;20124;-73
2022/01/08 08:49:16;;;;;;;3.78;2.38;;;;;;;3.91;100.00;94521.38;10317209;28;20050;-74
2022/01/08 08:54:17;;;;;;;4.03;2.05;;;;;;;3.88;100.00;94525.31;10316399;28;20030;-73
2022/01/08 08:59:18;;;;;;;17.65;2.88;;;;;;;3.97;100.00;94514.28;10279862;28;20069;-78
2022/01/08 09:04:18;;;;;;;3.95;1.83;;;;;;;3.96;100.00;94518.00;10277268;28;20449;-77
2022/01/08 09:09:19;;;;;;;4.72;1.95;;;;;;;4.05;100.00;94489.97;10276564;28;20034;-73
2022/01/08 09:14:19;;;;;;;3.63;2.05;;;;;;;4.13;100.00;94492.25;10277797;28;20065;-73
2022/01/08 09:19:21;;;;;;;3.95;2.53;;;;;;;4.11;100.00;94491.69;10276813;28;20034;-77
2022/01/08 09:24:22;;;;;;;3.05;2.03;;;;;;;4.19;100.00;94483.31;10278225;28;20030;-73
2022/01/08 09:29:22;;;;;;;3.22;1.88;;;;;;;4.19;100.00;94485.97;10277062;28;20523;-74
2022/01/08 09:34:23;;;;;;;4.10;2.38;;;;;;;4.14;100.00;94475.25;10276348;28;20089;-74
2022/01/08 09:39:24;;;;;;;3.08;1.85;;;;;;;4.16;100.00;94470.50;10277342;28;20046;-78
2022/01/08 09:44:25;;;;;;;3.78;2.70;;;;;;;4.24;100.00;94450.66;10307670;28;20539;-77
2022/01/08 09:49:28;;;;;;;4.10;2.33;;;;;;;4.31;100.00;94448.66;10315558;28;20259;-75
2022/01/08 09:54:30;;;;;;;4.38;2.45;;;;;;;4.37;100.00;94452.25;10291734;28;20023;-72
2022/01/08 09:59:31;;;;;;;3.40;1.95;;;;;;;4.22;100.00;94448.25;10260508;28;20113;-73
2022/01/08 10:04:35;;;;;;;4.25;2.67;;;;;;;4.26;100.00;94438.75;10276206;28;20050;-76
2022/01/08 10:09:36;;;;;;;4.22;2.80;;;;;;;4.19;100.00;94434.66;10276017;28;20030;-74
2022/01/08 10:17:13;;;;;;;2.80;1.98;;;;;;;4.19;100.00;94424.81;10276438;28;20030;-72
2022/01/08 10:19:57;;;;;;;4.85;2.65;;;;;;;4.38;100.00;94417.41;10275892;28;20065;-71
2022/01/08 10:25:11;;;;;;;2.97;2.22;;;;;;;4.17;100.00;94424.25;10291459;28;20126;-74
2022/01/08 10:30:24;;;;;;;5.60;3.00;;;;;;;4.28;100.00;94410.06;10275529;28;20161;-74
2022/01/08 10:35:45;;;;;;;10.55;3.05;;;;;;;4.42;100.00;94404.41;10291740;28;20055;-77
2022/01/08 10:40:45;;;;;;;7.63;3.45;;;;;;;4.34;100.00;94394.16;10286131;28;20047;-73
2022/01/08 10:45:46;;;;;;;5.32;2.60;;;;;;;4.26;100.00;94385.53;10346947;28;20053;-74
2022/01/08 10:50:46;;;;;;;5.97;3.33;;;;;;;4.22;100.00;94373.78;10339740;28;20026;-73
2022/01/08 10:55:47;;;;;;;4.88;2.60;;;;;;;4.36;100.00;94376.91;10308721;28;20519;-81
2022/01/08 11:00:48;;;;;;;9.35;3.30;;;;;;;4.42;100.00;94367.16;10323618;28;20412;-80
2022/01/08 11:06:02;;;;;;;5.20;3.20;;;;;;;4.62;100.00;94359.47;10321407;28;20034;-75
2022/01/08 11:11:02;;;;;;;8.60;3.75;;;;;;;4.65;100.00;94355.53;10306642;28;20026;-76
2022/01/08 11:16:04;;;;;;;9.40;3.90;;;;;;;4.85;100.00;94349.66;10322451;28;20034;-79
2022/01/08 11:21:06;;;;;;;7.22;4.75;;;;;;;5.00;100.00;94356.25;10288768;28;20045;-78
2022/01/08 11:26:10;;;;;;;7.75;4.15;;;;;;;4.91;100.00;94345.19;10264437;28;20030;-76
2022/01/08 11:31:15;;;;;;;4.28;3.10;;;;;;;4.84;100.00;94348.03;10297188;28;20053;-79
2022/01/08 11:36:15;;;;;;;5.43;2.60;;;;;;;4.69;100.00;94340.66;10305182;28;20420;-75
2022/01/08 11:41:16;;;;;;;7.07;4.15;;;;;;;4.60;100.00;94336.81;10304568;28;20050;-74
2022/01/08 11:46:17;;;;;;;6.78;3.58;;;;;;;4.66;100.00;94335.84;10334884;28;20454;-73
2022/01/08 11:51:21;;;;;;;5.63;3.17;;;;;;;4.76;100.00;94324.53;10318687;28;20038;-73
2022/01/08 11:56:29;;;;;;;5.60;3.65;;;;;;;4.86;100.00;94316.66;10302976;28;20034;-73
2022/01/08 12:01:33;;;;;;;6.60;4.13;;;;;;;4.67;100.00;94308.16;10304008;28;20057;-80
2022/01/08 12:06:37;;;;;;;5.05;3.17;;;;;;;4.61;100.00;94323.25;10304773;28;20534;-75
2022/01/08 12:11:48;;;;;;;6.20;3.25;;;;;;;4.56;100.00;94317.06;10304401;28;20018;-78
2022/01/08 12:17:18;;;;;;;5.55;3.10;;;;;;;4.51;100.00;94309.81;10322239;28;20030;-76
2022/01/08 12:22:19;;;;;;;4.88;3.30;;;;;;;4.62;100.00;94303.59;10302999;28;20030;-74
2022/01/08 12:27:34;;;;;;;4.63;2.97;;;;;;;4.65;100.00;94291.66;10303764;28;20034;-74
2022/01/08 12:32:37;;;;;;;3.92;2.70;;;;;;;4.58;100.00;94302.47;10303191;28;20034;-75
2022/01/08 12:37:39;;;;;;;14.93;2.90;;;;;;;4.29;100.00;94307.13;10302144;28;20026;-74
2022/01/08 12:42:44;;;;;;;7.97;3.03;;;;;;;4.57;100.00;94292.84;10278859;28;20059;-78
2022/01/08 12:47:48;;;;;;;3.85;2.20;;;;;;;4.70;100.00;94293.56;10321148;28;20030;-73
2022/01/08 12:53:11;;;;;;;9.38;4.50;;;;;;;4.65;100.00;94290.81;10318535;28;20034;-72
2022/01/08 12:58:12;;;;;;;5.57;3.40;;;;;;;4.58;100.00;94291.81;10312282;28;20050;-74
2022/01/08 13:03:13;;;;;;;9.75;4.40;;;;;;;4.55;100.00;94294.97;10317875;28;20041;-77
2022/01/08 13:08:22;;;;;;;5.13;3.13;;;;;;;4.61;100.00;94287.84;10318812;28;20041;-75
2022/01/08 13:13:47;;;;;;;5.00;3.10;;;;;;;4.65;100.00;94285.50;10317793;28;20137;-75
2022/01/08 13:18:52;;;;;;;6.57;3.60;;;;;;;4.77;100.00;94292.34;10318559;28;20089;-74
2022/01/08 13:23:55;;;;;;;5.70;3.08;;;;;;;4.73;100.00;94279.75;10318133;28;20037;-81
2022/01/08 13:28:56;;;;;;;3.95;3.03;;;;;;;5.02;100.00;94260.91;10317282;28;20034;-82
2022/01/08 13:33:57;;;;;;;4.28;2.90;;;;;;;5.14;100.00;94266.91;10334487;28;20034;-81
2022/01/08 13:38:58;;;;;;;5.60;3.17;;;;;;;5.15;100.00;94271.19;10318106;28;20049;-79
2022/01/08 13:44:04;;;;;;;6.05;3.35;;;;;;;5.05;100.00;94268.41;10306151;28;20058;-77
2022/01/08 13:49:07;;;;;;;6.07;3.58;;;;;;;5.08;100.00;94266.06;10278826;28;20026;-78
2022/01/08 13:54:08;;;;;;;5.82;2.92;;;;;;;5.05;100.00;94257.75;10277453;28;20041;-74
2022/01/08 13:59:17;;;;;;;4.97;3.03;;;;;;;5.08;100.00;94259.91;10293277;28;20035;-77
2022/01/08 14:04:18;;;;;;;3.00;2.35;;;;;;;5.08;100.00;94262.56;10275825;28;20089;-73
2022/01/08 14:09:19;;;;;;;4.85;2.72;;;;;;;5.07;100.00;94259.09;10277039;28;20473;-73
2022/01/08 14:14:20;;;;;;;5.88;3.20;;;;;;;5.05;100.00;94265.72;10278514;28;20042;-76
2022/01/08 14:19:21;;;;;;;5.70;2.58;;;;;;;4.98;100.00;94268.59;10279690;28;20047;-77
2022/01/08 14:24:24;;;;;;;6.43;3.42;;;;;;;4.84;100.00;94259.38;10300619;28;20386;-78
2022/01/08 14:29:25;;;;;;;5.35;3.17;;;;;;;4.93;100.00;94264.00;10299722;28;20161;-79
2022/01/08 14:34:26;;;;;;;5.85;2.80;;;;;;;4.59;100.00;94269.47;10299813;28;20413;-78
2022/01/08 14:39:30;;;;;;;10.05;3.05;;;;;;;4.40;100.00;94265.50;10284331;28;20481;-77
2022/01/08 14:44:35;;;;;;;5.90;3.65;;;;;;;4.52;100.00;94258.22;10322811;28;20399;-78
2022/01/08 14:49:38;;;;;;;6.88;4.03;;;;;;;4.43;100.00;94262.34;10274835;28;20053;-74
2022/01/08 14:54:38;;;;;;;5.50;3.40;;;;;;;4.33;100.00;94270.19;10310411;28;20069;-75
2022/01/08 14:59:39;;;;;;;7.75;4.07;;;;;;;4.28;100.00;94266.41;10307864;28;20034;-79
2022/01/08 15:04:41;;;;;;;12.25;4.05;;;;;;;4.37;100.00;94258.81;10308827;28;20038;-74
2022/01/08 15:09:43;;;;;;;6.43;3.72;;;;;;;4.33;100.00;94259.56;10309149;28;20154;-78
2022/01/08 15:14:43;;;;;;;8.20;3.85;;;;;;;4.37;100.00;94252.69;10324944;28;20026;-74
2022/01/08 15:19:44;;;;;;;8.15;4.15;;;;;;;4.28;100.00;94245.13;10308193;28;20030;-76
2022/01/08 15:24:44;;;;;;;9.55;4.65;;;;;;;4.16;100.00;94255.06;10306509;28;20041;-77
2022/01/08 15:29:45;;;;;;;8.75;4.68;;;;;;;4.03;100.00;94247.44;10322924;28;20517;-76
2022/01/08 15:34:46;;;;;;;10.43;5.15;;;;;;;4.13;100.00;94257.41;10305321;28;20026;-73
2022/01/08 15:39:47;;;;;;;17.48;5.10;;;;;;;4.18;100.00;94258.28;10305730;28;20072;-74
2022/01/08 15:44:49;;;;;;;9.48;5.03;;;;;;;4.21;100.00;94259.66;10321214;28;20030;-74
2022/01/08 15:49:49;;;;;;;7.60;4.95;;;;;;;4.17;100.00;94259.34;10324433;28;20049;-74
2022/01/08 15:54:50;;;;;;;9.88;4.55;;;;;;;4.20;100.00;94250.88;10306197;28;20235;-73
2022/01/08 15:59:50;;;;;;;9.13;4.85;;;;;;;3.97;100.00;94238.56;10321112;28;20045;-73
2022/01/08 16:04:51;;;;;;;11.35;4.82;;;;;;;3.81;100.00;94226.09;10304043;28;20034;-73
2022/01/08 16:09:51;;;;;;;9.00;4.75;;;;;;;3.74;100.00;94228.91;10303943;28;20022;-77
2022/01/08 16:14:51;;;;;;;9.82;5.80;;;;;;;3.64;100.00;94228.78;10314671;28;20041;-77
2022/01/08 16:19:52;;;;;;;13.73;6.07;;;;;;;3.48;100.00;94238.38;10302822;28;20026;-74
2022/01/08 16:24:54;;;;;;;12.10;5.38;;;;;;;3.51;100.00;94233.34;10303133;28;20034;-73
2022/01/08 16:29:54;;;;;;;9.32;5.13;;;;;;;3.55;100.00;94226.53;10303011;28;20117;-73
2022/01/08 16:34:55;;;;;;;10.07;4.88;;;;;;;3.57;100.00;94228.94;10496059;22;20061;-81
2022/01/08 16:39:55;;;;;;;9.35;4.93;;;;;;;3.59;100.00;94222.34;10401331;28;20026;-76
2022/01/08 16:44:56;;;;;;;11.15;5.57;;;;;;;3.54;100.00;94224.91;10401692;28;20021;-76
2022/01/08 16:49:57;;;;;;;10.35;5.78;;;;;;;3.52;100.00;94231.53;10383656;28;20026;-73
2022/01/08 16:55:16;;;;;;;12.90;6.03;;;;;;;3.50;100.00;94228.28;10381769;28;20083;-74
2022/01/08 17:00:16;;;;;;;;;;;;;;;3.40;100.00;94231.59;10337994;28;20046;-73
2022/01/08 17:05:49;;;;;;;16.63;5.93;;;;;;;3.36;100.00;94236.59;10341235;28;19926;-75
2022/01/08 17:10:55;;;;;;;9.77;5.43;;;;;;;3.47;100.00;94224.25;10358971;28;20447;-75
2022/01/08 17:15:56;;;;;;;12.18;5.53;;;;;;;3.43;100.00;94217.81;10315324;28;20038;-73
2022/01/08 17:20:57;;;;;;;9.77;5.25;;;;;;;3.61;100.00;94229.25;10298965;28;20026;-76
2022/01/08 17:25:59;;;;;;;9.30;5.30;;;;;;;3.35;100.00;94226.19;10299968;28;20038;-74
2022/01/08 17:30:59;;;;;;;14.57;6.10;;;;;;;3.41;100.00;94230.53;10320403;28;20035;-74
2022/01/08 17:36:00;;;;;;;14.98;6.13;;;;;;;3.47;100.00;94215.50;10358723;28;20025;-78
2022/01/08 17:41:01;;;;;;;13.07;5.47;;;;;;;3.48;100.00;94217.91;10337032;28;20030;-73
2022/01/08 17:46:04;;;;;;;9.93;4.70;;;;;;;3.36;100.00;94217.16;10369659;28;20381;-73
2022/01/08 17:51:06;;;;;;;6.97;3.92;;;;;;;3.24;100.00;94214.59;10300943;28;20085;-74
2022/01/08 17:56:06;;;;;;;9.20;5.15;;;;;;;3.34;100.00;94211.31;10340914;28;20034;-73
2022/01/08 18:01:19;;;;;;;9.82;4.80;;;;;;;3.18;100.00;94204.91;10342136;28;20567;-74
2022/01/08 18:06:19;;;;;;;13.77;6.07;;;;;;;3.13;100.00;94205.66;10309225;28;20026;-80
2022/01/08 18:11:20;;;;;;;9.45;5.45;;;;;;;3.01;100.00;94202.25;10362072;28;20030;-79
2022/01/08 18:16:20;;;;;;;12.95;5.97;;;;;;;3.02;100.00;94199.34;10332456;28;20095;-78
2022/01/08 18:21:21;;;;;;;9.80;5.35;;;;;;;3.06;100.00;94191.72;10348692;28;20026;-79
2022/01/08 18:26:21;;;;;;;16.00;6.80;;;;;;;3.04;100.00;94197.28;10338228;28;20030;-79
2022/01/08 18:31:22;;;;;;;13.10;6.78;;;;;;;3.05;100.00;94198.06;10296634;28;20046;-75
2022/01/08 18:36:22;;;;;;;9.75;5.15;;;;;;;3.16;100.00;94193.75;10325309;28;20022;-73
2022/01/08 18:41:24;;;;;;;7.60;4.22;;;;;;;3.28;100.00;94197.16;10324505;28;20026;-77
2022/01/08 18:46:25;;;;;;;10.07;4.03;;;;;;;3.42;100.00;94184.34;10385619;28;20035;-76
2022/01/08 18:51:25;;;;;;;9.82;4.57;;;;;;;3.40;100.00;94179.28;10387994;28;20021;-79
2022/01/08 18:56:26;;;;;;;11.55;5.50;;;;;;;3.24;100.00;94186.19;10322871;28;20575;-78
2022/01/08 19:01:26;;;;;;;9.95;5.20;;;;;;;3.21;100.00;94189.31;10322729;28;20019;-74
2022/01/08 19:06:29;;;;;;;13.30;5.82;;;;;;;3.09;100.00;94188.59;10322433;28;20018;-78
2022/01/08 19:11:30;;;;;;;7.05;4.15;;;;;;;3.06;100.00;94181.91;10321854;28;20026;-79
2022/01/08 19:16:30;;;;;;;9.52;4.28;;;;;;;3.10;100.00;94171.63;10327463;28;20025;-78
2022/01/08 19:21:32;;;;;;;8.25;4.00;;;;;;;3.02;100.00;94174.66;10345314;28;20030;-77
2022/01/08 19:26:33;;;;;;;11.38;5.18;;;;;;;2.97;100.00;94150.69;10345018;28;20111;-76
2022/01/08 19:31:33;;;;;;;5.78;3.55;;;;;;;2.98;100.00;94157.59;10349689;28;20133;-79
2022/01/08 19:36:34;;;;;;;10.25;4.70;;;;;;;2.96;100.00;94149.06;10331047;28;20539;-73
2022/01/08 19:41:35;;;;;;;7.40;3.72;;;;;;;3.07;100.00;94151.66;10362826;28;20038;-74
2022/01/08 19:46:35;;;;;;;9.40;4.65;;;;;;;3.11;100.00;94149.31;10344800;28;20026;-74
2022/01/08 19:51:36;;;;;;;7.90;4.70;;;;;;;3.23;100.00;94144.72;10357256;28;20030;-78
2022/01/08 19:56:37;;;;;;;14.02;5.28;;;;;;;3.27;100.00;94131.78;10321052;28;20033;-75
2022/01/08 20:01:37;;;;;;;10.68;4.10;;;;;;;3.37;100.00;94128.50;10304631;28;20031;-74
2022/01/08 20:06:38;;;;;;;9.85;4.78;;;;;;;3.38;100.00;94122.94;10344767;28;20034;-79
2022/01/08 20:11:38;;;;;;;8.40;4.57;;;;;;;3.46;100.00;94113.75;10343722;28;20475;-74
2022/01/08 20:16:39;;;;;;;9.98;4.63;;;;;;;3.56;100.00;94110.44;10342726;28;20486;-73
2022/01/08 20:21:39;;;;;;;8.55;4.10;;;;;;;3.36;100.00;94116.25;10343957;28;20120;-73
2022/01/08 20:26:41;;;;;;;10.82;4.30;;;;;;;3.45;100.00;94111.31;10327745;28;20038;-77
2022/01/08 20:31:43;;;;;;;8.70;4.10;;;;;;;3.45;100.00;94092.72;10343467;28;20116;-81
2022/01/08 20:36:44;;;;;;;10.43;4.88;;;;;;;3.40;100.00;94085.50;10326528;28;20034;-74
2022/01/08 20:41:44;;;;;;;6.85;3.70;;;;;;;3.32;100.00;94083.25;10343180;28;20044;-75
2022/01/08 20:46:44;;;;;;;10.25;4.53;;;;;;;3.25;100.00;94081.59;10375561;28;20031;-74
2022/01/08 20:51:45;;;;;;;11.95;5.07;;;;;;;3.23;100.00;94072.25;10381715;28;20021;-77
2022/01/08 20:56:46;;;;;;;15.30;4.88;;;;;;;3.17;100.00;94071.38;10383552;28;20033;-73
2022/01/08 21:01:46;;;;;;;10.77;4.93;;;;;;;3.11;100.00;94069.66;10341843;28;20099;-74
2022/01/08 21:06:47;;;;;;;13.82;5.00;;;;;;;2.95;100.00;94058.03;10310103;28;20057;-74
2022/01/08 21:11:47;;;;;;;11.52;5.45;;;;;;;2.88;100.00;94060.84;10316641;28;20022;-73
2022/01/08 21:16:48;;;;;;;8.40;5.10;;;;;;;2.98;100.00;94051.44;10333973;28;20025;-74
2022/01/08 21:21:48;;;;;;;12.35;4.47;;;;;;;2.96;100.00;94058.81;10299762;28;20038;-79
2022/01/08 21:26:49;;;;;;;11.57;5.68;;;;;;;2.84;100.00;94056.25;10337989;28;20026;-75
2022/01/08 21:31:51;;;;;;;15.98;6.18;;;;;;;2.96;100.00;94053.50;10356992;28;20511;-74
2022/01/08 21:36:53;;;;;;;17.30;5.80;;;;;;;2.97;100.00;94055.13;10340733;28;20033;-78
2022/01/08 21:41:53;;;;;;;15.77;6.57;;;;;;;3.04;100.00;94058.41;10319096;28;20061;-77
2022/01/08 21:46:55;;;;;;;9.80;5.40;;;;;;;3.06;100.00;94054.47;10324365;28;20121;-78
2022/01/08 21:51:58;;;;;;;10.90;4.68;;;;;;;3.01;100.00;94038.47;10341258;28;20029;-74
2022/01/08 21:56:59;;;;;;;14.40;5.00;;;;;;;3.03;100.00;94027.63;10341234;28;20044;-74
2022/01/08 22:01:59;;;;;;;10.73;5.57;;;;;;;2.82;100.00;94023.84;10358310;28;20058;-74
2022/01/08 22:07:00;;;;;;;10.98;5.47;;;;;;;2.79;100.00;94022.50;10358558;28;20025;-74
2022/01/08 22:12:00;;;;;;;11.10;5.55;;;;;;;2.88;100.00;94010.41;10342014;28;20022;-72
2022/01/08 22:17:01;;;;;;;20.45;5.90;;;;;;;2.89;100.00;94000.63;10358303;28;20041;-76
2022/01/08 22:22:02;;;;;;;9.85;4.80;;;;;;;2.81;100.00;94004.47;10339814;28;20022;-78
2022/01/08 22:27:02;;;;;;;11.13;5.03;;;;;;;2.78;100.00;93997.00;10343535;28;20484;-73
2022/01/08 22:32:03;;;;;;;9.75;4.45;;;;;;;2.74;100.00;93998.53;10358324;28;20050;-77
2022/01/08 22:37:05;;;;;;;8.48;5.03;;;;;;;2.69;100.00;93991.31;10360010;28;20032;-73
2022/01/08 22:42:09;;;;;;;9.77;4.30;;;;;;;2.73;100.00;93984.47;10371138;28;20476;-74
2022/01/08 22:47:09;;;;;;;9.35;4.93;;;;;;;2.84;100.00;93974.00;10349281;28;20034;-74
2022/01/08 22:52:10;;;;;;;12.10;5.78;;;;;;;2.87;100.00;93976.16;10349478;28;20014;-74
2022/01/08 22:57:10;;;;;;;12.98;5.35;;;;;;;2.93;100.00;93980.50;10366838;28;20679;-73
2022/01/08 23:02:11;;;;;;;12.25;4.93;;;;;;;2.98;100.00;93974.47;10348486;28;20245;-73
2022/01/08 23:07:12;;;;;;;13.77;6.13;;;;;;;2.99;100.00;93950.31;10349135;28;20026;-77
2022/01/08 23:12:13;;;;;;;10.82;4.32;;;;;;;2.98;100.00;93950.56;10367427;28;20033;-77
2022/01/08 23:17:14;;;;;;;6.95;3.63;;;;;;;3.06;100.00;93956.25;10347415;28;20030;-73
2022/01/08 23:22:18;;;;;;;10.43;4.13;;;;;;;3.12;100.00;93956.34;10347295;28;20602;-73
2022/01/08 23:27:18;;;;;;;8.48;4.28;;;;;;;3.14;100.00;93944.41;10347368;28;20547;-75
2022/01/08 23:32:19;;;;;;;7.50;4.28;;;;;;;3.15;100.00;93931.94;10346812;28;20065;-74
2022/01/08 23:37:19;;;;;;;9.60;5.25;;;;;;;3.01;100.00;93937.59;10364630;28;20551;-74